Terminal Aerodrome Forecast
Issued by NWS Wilmington, OH

Current Version | Previous Version | Graphics & Text | Print | Product List | Glossary On
Versions: 1 2 3 4 5 6 7 8 9 10 11 12 13 14 15 16 17 18 19 20 21 22
000
FTUS41 KILN 172300
TAFCVG
TAF
KCVG 172333Z 1800/1906 17005KT P6SM BKN300
     FM180300 14003KT P6SM OVC200
     FM180800 18003KT P6SM BKN050
     FM181500 26008KT P6SM BKN050
     FM182100 29008KT P6SM BKN050
     FM190000 35004KT P6SM SCT040=

USA.gov is the U.S. government's official web portal to all federal, state and local government web resources and services.